Time;durP1;ratioP1;P1;durP2;ratioP2;P2;SDS_P1;SDS_P2;PMS_P1;PMS_P2;Temp;Humidity;BMP_temperature;BMP_pressure;BME280_temperature;BME280_humidity;BME280_pressure;Samples;Min_cycle;Max_cycle;Signal;HPM_P1;HPM_P2
2022/07/03 00:07:05;;;;;;;1.80;1.50;;;16.30;96.60;;;;;;21057495;28;20048;-58
2022/07/03 00:17:08;;;;;;;3.03;1.70;;;16.30;95.80;;;;;;21056843;28;20114;-57
2022/07/03 00:27:11;;;;;;;1.70;1.38;;;16.50;95.10;;;;;;21109434;28;20065;-57
2022/07/03 00:37:13;;;;;;;1.98;1.40;;;16.50;95.80;;;;;;21123036;28;20085;-57
2022/07/03 00:47:18;;;;;;;2.53;1.95;;;16.20;95.40;;;;;;21137678;28;20097;-57
2022/07/03 00:57:22;;;;;;;2.40;2.10;;;15.90;96.20;;;;;;21096783;28;20447;-57
2022/07/03 01:07:53;;;;;;;3.17;1.90;;;15.60;97.80;;;;;;21052939;28;20104;-48
2022/07/03 01:18:21;;;;;;;5.93;3.00;;;15.40;99.70;;;;;;21049644;28;20044;-57
2022/07/03 01:28:24;;;;;;;7.50;4.22;;;15.20;99.90;;;;;;21051701;28;20048;-51
2022/07/03 01:38:28;;;;;;;6.43;3.60;;;15.20;99.90;;;;;;22270510;22;20113;-50
2022/07/03 01:48:33;;;;;;;6.90;4.75;;;15.20;99.90;;;;;;21019494;28;20090;-51
2022/07/03 01:58:35;;;;;;;7.05;4.70;;;15.10;99.90;;;;;;21023732;28;20199;-50
2022/07/03 02:08:44;;;;;;;10.98;5.55;;;15.10;99.90;;;;;;21050927;28;20040;-48
2022/07/03 02:19:04;;;;;;;6.90;5.20;;;14.90;99.90;;;;;;21066995;28;20477;-47
2022/07/03 02:29:14;;;;;;;;;;;14.80;99.90;;;;;;21020388;28;20040;-56
2022/07/03 02:39:27;;;;;;;9.77;7.60;;;14.80;99.90;;;;;;20998021;28;19916;-49
2022/07/03 02:49:48;;;;;;;12.82;8.32;;;14.90;99.90;;;;;;20996745;28;20090;-47
2022/07/03 02:59:54;;;;;;;11.48;7.88;;;14.90;99.90;;;;;;21057281;28;20442;-47
2022/07/03 03:09:57;;;;;;;13.43;8.20;;;15.00;99.90;;;;;;21078062;28;20032;-48
2022/07/03 03:20:02;;;;;;;11.15;7.22;;;14.90;99.90;;;;;;21078381;28;20101;-47
2022/07/03 03:30:06;;;;;;;12.20;7.05;;;15.00;99.90;;;;;;21060762;28;20108;-51
2022/07/03 03:40:09;;;;;;;12.18;8.73;;;15.10;99.90;;;;;;21060262;28;20546;-56
2022/07/03 03:50:18;;;;;;;;;;;15.00;99.90;;;;;;21060020;28;20048;-56
2022/07/03 04:00:21;;;;;;;9.07;5.82;;;15.00;99.90;;;;;;21057331;28;19915;-48
2022/07/03 04:10:23;;;;;;;10.80;6.20;;;15.20;99.90;;;;;;21026546;28;20050;-48
2022/07/03 04:20:26;;;;;;;11.85;7.63;;;15.70;99.90;;;;;;21056175;28;20039;-49
2022/07/03 04:30:28;;;;;;;9.50;7.43;;;15.90;99.90;;;;;;21055937;28;20040;-48
2022/07/03 04:40:31;;;;;;;11.40;7.95;;;16.70;99.90;;;;;;21054860;28;20133;-48
2022/07/03 04:50:33;;;;;;;11.70;7.43;;;17.00;99.90;;;;;;21054316;28;20097;-57
2022/07/03 05:00:35;;;;;;;11.52;6.00;;;17.00;99.90;;;;;;21053129;28;20376;-49
2022/07/03 05:10:38;;;;;;;15.65;7.90;;;16.90;99.90;;;;;;21052664;28;20085;-57
2022/07/03 05:20:41;;;;;;;11.30;6.78;;;16.90;99.90;;;;;;21051961;28;20089;-47
2022/07/03 05:30:43;;;;;;;7.05;5.18;;;17.00;99.90;;;;;;21051408;28;20089;-48
2022/07/03 05:40:46;;;;;;;9.45;5.22;;;16.90;99.90;;;;;;21034031;28;20097;-48
2022/07/03 05:50:48;;;;;;;13.30;6.68;;;16.90;99.90;;;;;;21050448;28;20054;-48
2022/07/03 06:00:50;;;;;;;10.95;7.10;;;17.20;99.90;;;;;;21049883;28;20040;-48
2022/07/03 06:10:53;;;;;;;15.90;7.25;;;17.30;99.90;;;;;;21050129;28;20036;-52
2022/07/03 06:20:56;;;;;;;7.25;5.00;;;18.70;99.90;;;;;;21066303;28;20040;-58
2022/07/03 06:30:58;;;;;;;6.30;4.43;;;23.50;99.90;;;;;;21048927;28;20054;-55
2022/07/03 06:41:01;;;;;;;8.07;3.95;;;26.00;96.00;;;;;;21048933;28;20105;-58
2022/07/03 06:51:03;;;;;;;7.38;3.90;;;27.30;92.50;;;;;;21063675;28;20481;-58
2022/07/03 07:01:06;;;;;;;4.82;3.58;;;28.20;91.10;;;;;;21062703;28;20093;-57
2022/07/03 07:11:08;;;;;;;11.27;3.92;;;29.40;90.10;;;;;;21062511;28;20020;-57
2022/07/03 07:21:11;;;;;;;9.97;5.23;;;32.30;81.10;;;;;;21061107;28;20032;-60
2022/07/03 07:31:13;;;;;;;4.77;4.27;;;32.80;79.30;;;;;;21060776;28;20476;-61
2022/07/03 07:41:16;;;;;;;6.80;4.50;;;33.30;76.80;;;;;;21059065;28;20051;-61
2022/07/03 07:51:18;;;;;;;5.18;4.20;;;33.40;75.90;;;;;;21058926;28;20036;-61
2022/07/03 08:11:42;;;;;;;5.72;5.20;;;32.60;77.10;;;;;;21057601;28;20097;-58
2022/07/03 08:21:46;;;;;;;5.32;4.28;;;32.20;78.50;;;;;;21056362;28;20061;-61
2022/07/03 08:31:48;;;;;;;;;;;31.80;81.60;;;;;;21039190;28;20040;-57
2022/07/03 08:41:52;;;;;;;7.72;5.15;;;31.70;79.50;;;;;;20987849;28;20264;-58
2022/07/03 08:51:55;;;;;;;9.30;5.07;;;30.80;78.60;;;;;;21004257;28;20101;-57
2022/07/03 09:01:58;;;;;;;7.82;5.13;;;30.70;80.10;;;;;;20925487;28;20067;-57
2022/07/03 09:12:01;;;;;;;6.93;5.70;;;30.40;80.70;;;;;;20902636;28;20033;-61
2022/07/03 09:22:03;;;;;;;9.88;4.90;;;30.60;79.80;;;;;;20886221;28;20388;-61
2022/07/03 09:32:07;;;;;;;6.25;4.68;;;30.50;81.00;;;;;;20901678;28;20107;-58
2022/07/03 09:42:09;;;;;;;5.90;4.32;;;30.40;80.60;;;;;;20971223;28;20102;-61
2022/07/03 09:52:34;;;;;;;4.80;4.30;;;30.70;82.20;;;;;;20984619;28;20094;-61
2022/07/03 10:03:00;;;;;;;7.00;5.05;;;31.50;81.10;;;;;;21066092;28;20040;-62
2022/07/03 10:13:04;;;;;;;5.60;5.10;;;32.10;76.90;;;;;;21049749;28;20036;-57
2022/07/03 10:23:07;;;;;;;5.47;4.30;;;31.80;75.60;;;;;;21041832;28;20036;-57
2022/07/03 10:33:10;;;;;;;4.15;3.75;;;31.40;76.10;;;;;;21015992;28;20037;-57
2022/07/03 10:53:45;;;;;;;4.97;3.60;;;31.70;76.10;;;;;;21007061;28;20032;-57
2022/07/03 11:03:59;;;;;;;4.05;3.47;;;31.40;76.00;;;;;;21062828;28;20036;-57
2022/07/03 11:14:20;;;;;;;4.65;3.80;;;31.60;76.70;;;;;;21062856;28;20039;-61
2022/07/03 11:24:29;;;;;;;7.78;4.00;;;32.20;76.00;;;;;;21061010;28;20078;-57
2022/07/03 11:34:43;;;;;;;5.53;4.15;;;32.30;76.80;;;;;;21058922;28;20040;-62
2022/07/03 11:44:46;;;;;;;14.32;4.13;;;32.40;79.80;;;;;;21026313;28;20043;-57
2022/07/03 11:54:50;;;;;;;10.10;4.53;;;32.40;81.00;;;;;;20975867;28;20436;-54
2022/07/03 12:04:53;;;;;;;9.23;3.42;;;30.40;78.80;;;;;;20990843;28;20037;-62
2022/07/03 12:14:58;;;;;;;5.50;4.40;;;30.40;85.30;;;;;;20973972;28;20339;-57
2022/07/03 12:25:13;;;;;;;4.13;3.72;;;31.50;79.70;;;;;;21007942;28;20039;-58
2022/07/03 12:35:25;;;;;;;5.18;4.40;;;32.00;80.20;;;;;;21055807;28;20424;-57
2022/07/03 12:45:28;;;;;;;7.03;5.35;;;32.00;77.50;;;;;;21054503;28;20442;-57
2022/07/03 12:55:33;;;;;;;4.75;3.80;;;32.20;76.60;;;;;;21028946;28;20025;-57
2022/07/03 13:05:42;;;;;;;7.43;5.40;;;32.20;77.30;;;;;;20969413;28;20086;-62
2022/07/03 13:15:44;;;;;;;5.30;4.80;;;32.40;77.20;;;;;;20969204;28;20036;-57
2022/07/03 13:25:47;;;;;;;7.15;5.32;;;32.10;78.80;;;;;;20968272;28;20481;-57
2022/07/03 13:35:50;;;;;;;7.15;5.28;;;32.60;77.50;;;;;;20985707;28;20044;-61
2022/07/03 13:45:53;;;;;;;6.23;5.47;;;32.70;78.70;;;;;;21041454;28;20356;-56
2022/07/03 13:55:59;;;;;;;7.03;4.88;;;32.00;76.90;;;;;;20983361;28;20446;-57
2022/07/03 14:06:03;;;;;;;6.10;4.40;;;31.20;81.60;;;;;;20966760;28;20032;-54
2022/07/03 14:16:07;;;;;;;6.43;4.90;;;30.50;78.60;;;;;;20966380;28;20493;-55
2022/07/03 14:26:09;;;;;;;5.22;3.80;;;28.90;80.50;;;;;;21010389;28;20082;-52
2022/07/03 14:36:12;;;;;;;5.07;3.88;;;27.60;84.00;;;;;;21048702;28;20549;-51
2022/07/03 14:46:15;;;;;;;4.45;3.13;;;27.10;86.60;;;;;;21048195;28;20040;-59
2022/07/03 14:56:20;;;;;;;6.10;3.20;;;27.10;86.90;;;;;;21016485;28;20041;-59
2022/07/03 15:06:23;;;;;;;3.72;3.08;;;27.80;81.90;;;;;;20969368;28;20032;-54
2022/07/03 15:16:27;;;;;;;4.85;3.28;;;27.50;84.50;;;;;;20978342;28;20551;-57
2022/07/03 15:26:31;;;;;;;4.90;3.20;;;28.40;81.80;;;;;;20977491;28;20032;-57
2022/07/03 15:36:45;;;;;;;5.38;4.43;;;30.90;75.10;;;;;;21017240;28;20048;-61
2022/07/03 15:47:05;;;;;;;6.50;5.00;;;32.30;74.90;;;;;;21025243;28;20048;-57
2022/07/03 15:57:38;;;;;;;7.18;4.05;;;32.80;71.60;;;;;;20974985;28;20279;-57
2022/07/03 16:07:43;;;;;;;6.50;4.50;;;32.60;72.00;;;;;;20974317;28;20094;-57
2022/07/03 16:17:46;;;;;;;;;;;31.20;72.20;;;;;;20972335;28;20032;-56
2022/07/03 16:27:49;;;;;;;5.70;3.30;;;29.50;76.20;;;;;;21032099;28;20433;-59
2022/07/03 16:38:00;;;;;;;7.30;3.40;;;28.80;78.70;;;;;;21072036;28;20515;-55
2022/07/03 16:48:16;;;;;;;3.92;3.22;;;28.00;79.00;;;;;;21054339;28;20036;-58
2022/07/03 16:58:20;;;;;;;3.65;3.20;;;27.60;82.20;;;;;;21004920;28;20063;-51
2022/07/03 17:08:22;;;;;;;6.45;4.05;;;26.50;83.70;;;;;;20969506;28;20040;-49
2022/07/03 17:18:47;;;;;;;10.27;4.78;;;25.30;86.50;;;;;;20985430;28;20523;-58
2022/07/03 17:29:02;;;;;;;6.40;4.18;;;24.00;89.20;;;;;;20967857;28;20085;-58
2022/07/03 17:39:07;;;;;;;5.88;4.03;;;23.30;91.40;;;;;;21013221;28;20051;-57
2022/07/03 17:49:14;;;;;;;6.07;5.00;;;22.70;92.50;;;;;;20997301;28;20402;-58
2022/07/03 17:59:17;;;;;;;6.90;4.95;;;22.30;93.10;;;;;;20967442;28;20448;-57
2022/07/03 18:09:26;;;;;;;6.68;4.80;;;21.80;94.20;;;;;;20966707;28;20379;-57
2022/07/03 18:19:32;;;;;;;10.73;5.28;;;21.40;95.10;;;;;;20967327;28;20094;-48
2022/07/03 18:29:37;;;;;;;10.90;5.35;;;21.00;95.90;;;;;;21038957;28;20093;-50
2022/07/03 18:39:40;;;;;;;8.85;5.68;;;20.70;96.50;;;;;;21053787;28;20085;-57
2022/07/03 18:49:44;;;;;;;9.10;5.20;;;20.30;97.20;;;;;;21064574;28;20044;-51
2022/07/03 19:00:04;;;;;;;7.22;5.72;;;20.00;97.60;;;;;;20997186;28;20036;-57
2022/07/03 19:10:06;;;;;;;12.32;6.05;;;19.80;98.40;;;;;;20995595;28;20393;-56
2022/07/03 19:20:11;;;;;;;8.90;6.50;;;19.60;99.20;;;;;;20976785;28;20045;-52
2022/07/03 19:30:15;;;;;;;7.68;5.80;;;19.40;99.90;;;;;;20976569;28;20098;-48
2022/07/03 19:40:19;;;;;;;6.88;5.40;;;19.50;99.90;;;;;;21031447;28;20442;-59
2022/07/03 19:50:22;;;;;;;11.98;6.28;;;19.50;99.90;;;;;;20994450;28;20048;-60
2022/07/03 20:00:28;;;;;;;7.20;5.65;;;19.20;99.90;;;;;;20974513;28;20078;-60
2022/07/03 20:10:30;;;;;;;9.07;6.47;;;19.10;99.90;;;;;;20973921;28;20032;-60
2022/07/03 20:20:33;;;;;;;11.85;6.72;;;18.80;99.90;;;;;;20973196;28;20051;-57
2022/07/03 20:30:35;;;;;;;9.00;6.00;;;18.70;99.90;;;;;;21037449;28;20032;-58
2022/07/03 20:40:38;;;;;;;9.02;5.82;;;18.90;99.90;;;;;;21054818;28;20184;-58
2022/07/03 20:50:41;;;;;;;9.15;7.40;;;19.10;99.90;;;;;;21054075;28;20085;-57
2022/07/03 21:00:44;;;;;;;9.45;6.32;;;18.80;99.90;;;;;;20918204;28;20832;-48
2022/07/03 21:21:08;;;;;;;7.85;6.13;;;18.70;99.90;;;;;;20902287;28;20049;-50
2022/07/03 21:31:11;;;;;;;9.13;6.43;;;18.70;99.90;;;;;;20901735;28;20037;-56
2022/07/03 21:41:15;;;;;;;10.93;7.70;;;18.40;99.90;;;;;;21026643;28;20101;-50
2022/07/03 21:51:19;;;;;;;8.52;5.57;;;18.00;99.90;;;;;;20983534;28;20393;-52
2022/07/03 22:01:21;;;;;;;7.43;4.90;;;18.20;99.90;;;;;;21038560;28;20480;-48
2022/07/03 22:11:24;;;;;;;9.55;5.45;;;18.00;99.90;;;;;;21049096;28;20032;-49
2022/07/03 22:21:26;;;;;;;7.03;5.10;;;17.80;99.90;;;;;;21065340;28;20028;-51
2022/07/03 22:41:49;;;;;;;11.52;6.53;;;17.50;99.90;;;;;;20997984;28;20049;-56
2022/07/03 22:51:52;;;;;;;7.63;6.25;;;17.40;99.90;;;;;;21014386;28;20036;-56
2022/07/03 23:01:55;;;;;;;8.07;6.55;;;17.40;99.90;;;;;;20935550;28;20067;-57
2022/07/03 23:11:57;;;;;;;9.18;7.53;;;17.30;99.90;;;;;;20913595;28;20067;-50
2022/07/03 23:21:59;;;;;;;10.65;6.60;;;17.30;99.90;;;;;;20912395;28;20036;-48
2022/07/03 23:32:02;;;;;;;11.25;7.68;;;17.30;99.90;;;;;;20910711;28;20389;-48
2022/07/03 23:42:04;;;;;;;9.63;7.70;;;17.30;99.90;;;;;;20980416;28;20117;-48
2022/07/03 23:52:07;;;;;;;11.20;10.00;;;17.40;99.90;;;;;;20992641;28;20070;-56
